nws-alerts: Checking more than four warning/county codes can delay the loading of your pages. You should use a cron job to get the data.
EllijayWeather Historical Data
Daily Summary for December 21, 2018 Units:  Both    English   Metric
Daily Weekly Monthly Yearly
  High: Low: Average:
Temperature: 48.0 °F /  8.9 °C 38.0 °F /  3.3 °C 43.1 °F /  6.2 °C
Dew Point: 20.0 °F /  -6.7 °C 15.0 °F /  -9.4 °C 17.5 °F /  -8.1 °C
Humidity: 42% 32% 36%
Wind Speed: 10mph /  16.1km/h - 1.7mph /  2.7km/h
Wind Gust: 15mph /  24.1km/h - -
Wind- - WNW
Pressure: 29.9 in /  1012.4 hPa 29.3 in /  992.1 hPa -
Precipitation: 0.600 in /  15.24 mm    
 
 
Tabular Data for December 21, 2018
Time Temperature Dew Point Pressure Wind Wind Speed Wind Gust Humidity Rainfall Rate (Hourly)
00:04 48.0 °F /  8.9 °C 20.0 °F /  -6.7 °C 29.4in /  995.5hPa Calm     32% 0.000in /  0mm
00:09 48.0 °F /  8.9 °C 20.0 °F /  -6.7 °C 29.4in /  995.5hPa North 1mph /  1.6km/h 1mph /  1.6km/h 32% 0.000in /  0mm
00:14 48.0 °F /  8.9 °C 19.0 °F /  -7.2 °C 29.4in /  995.5hPa North 1mph /  1.6km/h 2mph /  3.2km/h 32% 0.000in /  0mm
00:19 48.0 °F /  8.9 °C 19.0 °F /  -7.2 °C 29.4in /  995.5hPa North 2mph /  3.2km/h 2mph /  3.2km/h 32% 0.000in /  0mm
00:24 48.0 °F /  8.9 °C 19.0 °F /  -7.2 °C 29.4in /  995.5hPa Calm     32% 0.000in /  0mm
00:29 48.0 °F /  8.9 °C 19.0 °F /  -7.2 °C 29.4in /  995.5hPa Calm     32% 0.000in /  0mm
00:34 48.0 °F /  8.9 °C 19.0 °F /  -7.2 °C 29.4in /  995.5hPa Calm     32% 0.000in /  0mm
00:39 48.0 °F /  8.9 °C 19.0 °F /  -7.2 °C 29.4in /  995.5hPa Calm     32% 0.000in /  0mm
00:44 48.0 °F /  8.9 °C 19.0 °F /  -7.2 °C 29.4in /  995.5hPa Calm     32% 0.010in /  0.25mm
00:49 48.0 °F /  8.9 °C 19.0 °F /  -7.2 °C 29.4in /  995.5hPa Calm     32% 0.010in /  0.25mm
00:54 48.0 °F /  8.9 °C 19.0 °F /  -7.2 °C 29.4in /  995.5hPa Calm   1mph /  1.6km/h 32% 0.010in /  0.25mm
00:59 48.0 °F /  8.9 °C 19.0 °F /  -7.2 °C 29.4in /  995.5hPa Calm     32% 0.010in /  0.25mm
01:04 48.0 °F /  8.9 °C 19.0 °F /  -7.2 °C 29.4in /  995.5hPa Calm     32% 0.010in /  0.25mm
01:09 48.0 °F /  8.9 °C 19.0 °F /  -7.2 °C 29.4in /  995.5hPa Calm     32% 0.010in /  0.25mm
01:14 48.0 °F /  8.9 °C 19.0 °F /  -7.2 °C 29.4in /  995.5hPa Calm     32% 0.010in /  0.25mm
01:19 48.0 °F /  8.9 °C 19.0 °F /  -7.2 °C 29.4in /  995.5hPa Calm     32% 0.010in /  0.25mm
01:24 48.0 °F /  8.9 °C 19.0 °F /  -7.2 °C 29.4in /  995.5hPa Calm     32% 0.020in /  0.51mm
01:29 48.0 °F /  8.9 °C 19.0 °F /  -7.2 °C 29.4in /  995.5hPa Calm     32% 0.030in /  0.76mm
01:34 48.0 °F /  8.9 °C 19.0 °F /  -7.2 °C 29.4in /  995.5hPa Calm     32% 0.040in /  1.02mm
01:39 48.0 °F /  8.9 °C 19.0 °F /  -7.2 °C 29.4in /  995.5hPa Calm     32% 0.050in /  1.27mm
01:44 48.0 °F /  8.9 °C 19.0 °F /  -7.2 °C 29.4in /  995.5hPa Calm     32% 0.050in /  1.27mm
01:49 48.0 °F /  8.9 °C 19.0 °F /  -7.2 °C 29.4in /  995.5hPa Calm     32% 0.060in /  1.52mm
01:54 48.0 °F /  8.9 °C 19.0 °F /  -7.2 °C 29.4in /  995.5hPa Calm     32% 0.070in /  1.78mm
01:59 48.0 °F /  8.9 °C 19.0 °F /  -7.2 °C 29.4in /  995.5hPa Calm     32% 0.090in /  2.29mm
02:04 48.0 °F /  8.9 °C 19.0 °F /  -7.2 °C 29.4in /  995.5hPa Calm     32% 0.100in /  2.54mm
02:09 48.0 °F /  8.9 °C 19.0 °F /  -7.2 °C 29.4in /  995.5hPa Calm     32% 0.110in /  2.79mm
02:14 48.0 °F /  8.9 °C 19.0 °F /  -7.2 °C 29.4in /  995.5hPa Calm     32% 0.110in /  2.79mm
02:19 48.0 °F /  8.9 °C 19.0 °F /  -7.2 °C 29.4in /  995.5hPa Calm     32% 0.110in /  2.79mm
02:24 48.0 °F /  8.9 °C 19.0 °F /  -7.2 °C 29.3in /  992.1hPa Calm     32% 0.110in /  2.79mm
02:29 48.0 °F /  8.9 °C 19.0 °F /  -7.2 °C 29.3in /  992.1hPa Calm     32% 0.110in /  2.79mm
02:34 48.0 °F /  8.9 °C 19.0 °F /  -7.2 °C 29.3in /  992.1hPa Calm     32% 0.110in /  2.79mm
02:39 48.0 °F /  8.9 °C 19.0 °F /  -7.2 °C 29.3in /  992.1hPa Calm     32% 0.110in /  2.79mm
02:44 48.0 °F /  8.9 °C 19.0 °F /  -7.2 °C 29.3in /  992.1hPa Calm     32% 0.100in /  2.54mm
02:49 47.0 °F /  8.3 °C 19.0 °F /  -7.2 °C 29.3in /  992.1hPa Calm     32% 0.100in /  2.54mm
02:54 47.0 °F /  8.3 °C 19.0 °F /  -7.2 °C 29.3in /  992.1hPa Calm     32% 0.090in /  2.29mm
02:59 47.0 °F /  8.3 °C 19.0 °F /  -7.2 °C 29.3in /  992.1hPa NNW 1mph /  1.6km/h 1mph /  1.6km/h 32% 0.070in /  1.78mm
03:04 47.0 °F /  8.3 °C 19.0 °F /  -7.2 °C 29.3in /  992.1hPa Calm   1mph /  1.6km/h 32% 0.060in /  1.52mm
03:09 47.0 °F /  8.3 °C 19.0 °F /  -7.2 °C 29.3in /  992.1hPa Calm     32% 0.050in /  1.27mm
03:14 47.0 °F /  8.3 °C 19.0 °F /  -7.2 °C 29.3in /  992.1hPa Calm     32% 0.040in /  1.02mm
03:19 47.0 °F /  8.3 °C 19.0 °F /  -7.2 °C 29.3in /  992.1hPa Calm     32% 0.050in /  1.27mm
03:24 47.0 °F /  8.3 °C 19.0 °F /  -7.2 °C 29.3in /  992.1hPa Calm     32% 0.050in /  1.27mm
03:29 47.0 °F /  8.3 °C 19.0 °F /  -7.2 °C 29.3in /  992.1hPa Calm     32% 0.050in /  1.27mm
03:34 47.0 °F /  8.3 °C 19.0 °F /  -7.2 °C 29.3in /  992.1hPa Calm     32% 0.050in /  1.27mm
03:39 47.0 °F /  8.3 °C 19.0 °F /  -7.2 °C 29.3in /  992.1hPa Calm     32% 0.050in /  1.27mm
03:44 47.0 °F /  8.3 °C 19.0 °F /  -7.2 °C 29.3in /  992.1hPa Calm     32% 0.050in /  1.27mm
03:49 47.0 °F /  8.3 °C 19.0 °F /  -7.2 °C 29.3in /  992.1hPa Calm     32% 0.060in /  1.52mm
03:54 47.0 °F /  8.3 °C 19.0 °F /  -7.2 °C 29.3in /  992.1hPa Calm     32% 0.070in /  1.78mm
03:59 47.0 °F /  8.3 °C 19.0 °F /  -7.2 °C 29.3in /  992.1hPa Calm   1mph /  1.6km/h 32% 0.080in /  2.03mm
04:04 47.0 °F /  8.3 °C 19.0 °F /  -7.2 °C 29.3in /  992.1hPa Calm   2mph /  3.2km/h 32% 0.100in /  2.54mm
04:09 47.0 °F /  8.3 °C 19.0 °F /  -7.2 °C 29.3in /  992.1hPa NNE 1mph /  1.6km/h 3mph /  4.8km/h 32% 0.120in /  3.05mm
04:14 47.0 °F /  8.3 °C 18.0 °F /  -7.8 °C 29.3in /  992.1hPa Calm     32% 0.140in /  3.56mm
04:19 46.0 °F /  7.8 °C 18.0 °F /  -7.8 °C 29.3in /  992.1hPa WNW 1mph /  1.6km/h 1mph /  1.6km/h 32% 0.140in /  3.56mm
04:24 46.0 °F /  7.8 °C 18.0 °F /  -7.8 °C 29.3in /  992.1hPa Calm   1mph /  1.6km/h 32% 0.160in /  4.06mm
04:29 46.0 °F /  7.8 °C 18.0 °F /  -7.8 °C 29.3in /  992.1hPa Calm   1mph /  1.6km/h 32% 0.170in /  4.32mm
04:34 46.0 °F /  7.8 °C 18.0 °F /  -7.8 °C 29.3in /  992.1hPa NW 1mph /  1.6km/h 1mph /  1.6km/h 32% 0.180in /  4.57mm
04:39 46.0 °F /  7.8 °C 18.0 °F /  -7.8 °C 29.3in /  992.1hPa NNW 2mph /  3.2km/h 2mph /  3.2km/h 32% 0.180in /  4.57mm
04:44 46.0 °F /  7.8 °C 18.0 °F /  -7.8 °C 29.3in /  992.1hPa NNW 2mph /  3.2km/h 3mph /  4.8km/h 32% 0.180in /  4.57mm
04:49 46.0 °F /  7.8 °C 18.0 °F /  -7.8 °C 29.3in /  992.1hPa Calm   3mph /  4.8km/h 32% 0.180in /  4.57mm
04:54 46.0 °F /  7.8 °C 18.0 °F /  -7.8 °C 29.3in /  992.1hPa Calm     32% 0.170in /  4.32mm
04:59 46.0 °F /  7.8 °C 18.0 °F /  -7.8 °C 29.3in /  992.1hPa NW 1mph /  1.6km/h 1mph /  1.6km/h 32% 0.170in /  4.32mm
05:04 46.0 °F /  7.8 °C 18.0 °F /  -7.8 °C 29.3in /  992.1hPa Calm     32% 0.160in /  4.06mm
05:09 46.0 °F /  7.8 °C 18.0 °F /  -7.8 °C 29.3in /  992.1hPa Calm     32% 0.160in /  4.06mm
05:14 46.0 °F /  7.8 °C 18.0 °F /  -7.8 °C 29.3in /  992.1hPa Calm     32% 0.140in /  3.56mm
05:19 46.0 °F /  7.8 °C 18.0 °F /  -7.8 °C 29.3in /  992.1hPa Calm     32% 0.120in /  3.05mm
05:24 46.0 °F /  7.8 °C 18.0 °F /  -7.8 °C 29.3in /  992.1hPa Calm   2mph /  3.2km/h 32% 0.100in /  2.54mm
05:29 46.0 °F /  7.8 °C 18.0 °F /  -7.8 °C 29.3in /  992.1hPa NNW 2mph /  3.2km/h 3mph /  4.8km/h 32% 0.090in /  2.29mm
05:34 46.0 °F /  7.8 °C 18.0 °F /  -7.8 °C 29.3in /  992.1hPa WSW 3mph /  4.8km/h 3mph /  4.8km/h 32% 0.070in /  1.78mm
05:39 46.0 °F /  7.8 °C 18.0 °F /  -7.8 °C 29.3in /  992.1hPa NW 2mph /  3.2km/h 2mph /  3.2km/h 32% 0.070in /  1.78mm
05:44 46.0 °F /  7.8 °C 18.0 °F /  -7.8 °C 29.3in /  992.1hPa Calm   2mph /  3.2km/h 32% 0.060in /  1.52mm
05:49 46.0 °F /  7.8 °C 18.0 °F /  -7.8 °C 29.3in /  992.1hPa NNW 2mph /  3.2km/h 4mph /  6.4km/h 32% 0.050in /  1.27mm
05:54 46.0 °F /  7.8 °C 17.0 °F /  -8.3 °C 29.3in /  992.1hPa Calm     32% 0.040in /  1.02mm
05:59 46.0 °F /  7.8 °C 17.0 °F /  -8.3 °C 29.3in /  992.1hPa Calm     32% 0.030in /  0.76mm
06:04 46.0 °F /  7.8 °C 17.0 °F /  -8.3 °C 29.3in /  992.1hPa Calm   2mph /  3.2km/h 32% 0.020in /  0.51mm
06:09 46.0 °F /  7.8 °C 17.0 °F /  -8.3 °C 29.3in /  992.1hPa WNW 1mph /  1.6km/h 2mph /  3.2km/h 32% 0.020in /  0.51mm
06:14 46.0 °F /  7.8 °C 17.0 °F /  -8.3 °C 29.3in /  992.1hPa Calm     32% 0.020in /  0.51mm
06:19 46.0 °F /  7.8 °C 17.0 °F /  -8.3 °C 29.3in /  992.1hPa Calm     32% 0.020in /  0.51mm
06:24 46.0 °F /  7.8 °C 17.0 °F /  -8.3 °C 29.3in /  992.1hPa Calm     32% 0.020in /  0.51mm
06:29 45.0 °F /  7.2 °C 17.0 °F /  -8.3 °C 29.3in /  992.1hPa North 2mph /  3.2km/h 3mph /  4.8km/h 32% 0.020in /  0.51mm
06:34 45.0 °F /  7.2 °C 17.0 °F /  -8.3 °C 29.3in /  992.1hPa SSW 1mph /  1.6km/h 1mph /  1.6km/h 32% 0.020in /  0.51mm
06:39 45.0 °F /  7.2 °C 17.0 °F /  -8.3 °C 29.3in /  992.1hPa Calm   1mph /  1.6km/h 32% 0.010in /  0.25mm
06:44 45.0 °F /  7.2 °C 17.0 °F /  -8.3 °C 29.3in /  992.1hPa Calm   2mph /  3.2km/h 32% 0.010in /  0.25mm
06:49 45.0 °F /  7.2 °C 17.0 °F /  -8.3 °C 29.3in /  992.1hPa Calm   3mph /  4.8km/h 32% 0.010in /  0.25mm
06:54 45.0 °F /  7.2 °C 17.0 °F /  -8.3 °C 29.3in /  992.1hPa Calm   1mph /  1.6km/h 32% 0.010in /  0.25mm
06:59 45.0 °F /  7.2 °C 17.0 °F /  -8.3 °C 29.3in /  992.1hPa Calm   1mph /  1.6km/h 32% 0.010in /  0.25mm
07:04 45.0 °F /  7.2 °C 17.0 °F /  -8.3 °C 29.3in /  992.1hPa NW 1mph /  1.6km/h 2mph /  3.2km/h 32% 0.010in /  0.25mm
07:09 45.0 °F /  7.2 °C 17.0 °F /  -8.3 °C 29.3in /  992.1hPa NW 5mph /  8km/h 5mph /  8km/h 32% 0.010in /  0.25mm
07:14 45.0 °F /  7.2 °C 17.0 °F /  -8.3 °C 29.3in /  992.1hPa NW 2mph /  3.2km/h 2mph /  3.2km/h 32% 0.010in /  0.25mm
07:19 45.0 °F /  7.2 °C 17.0 °F /  -8.3 °C 29.3in /  992.1hPa NNW 1mph /  1.6km/h 2mph /  3.2km/h 32% 0.000in /  0mm
07:24 45.0 °F /  7.2 °C 17.0 °F /  -8.3 °C 29.3in /  992.1hPa Calm   2mph /  3.2km/h 32% 0.000in /  0mm
07:29 45.0 °F /  7.2 °C 17.0 °F /  -8.3 °C 29.3in /  992.1hPa Calm     32% 0.010in /  0.25mm
07:34 45.0 °F /  7.2 °C 17.0 °F /  -8.3 °C 29.3in /  992.1hPa Calm     32% 0.010in /  0.25mm
07:39 45.0 °F /  7.2 °C 17.0 °F /  -8.3 °C 29.3in /  992.1hPa Calm     32% 0.010in /  0.25mm
07:44 45.0 °F /  7.2 °C 17.0 °F /  -8.3 °C 29.3in /  992.1hPa NW 1mph /  1.6km/h 4mph /  6.4km/h 32% 0.020in /  0.51mm
07:49 45.0 °F /  7.2 °C 17.0 °F /  -8.3 °C 29.3in /  992.1hPa Calm   1mph /  1.6km/h 32% 0.020in /  0.51mm
07:54 45.0 °F /  7.2 °C 17.0 °F /  -8.3 °C 29.3in /  992.1hPa Calm   1mph /  1.6km/h 32% 0.020in /  0.51mm
07:59 45.0 °F /  7.2 °C 17.0 °F /  -8.3 °C 29.3in /  992.1hPa Calm   4mph /  6.4km/h 32% 0.030in /  0.76mm
08:04 44.0 °F /  6.7 °C 17.0 °F /  -8.3 °C 29.3in /  992.1hPa NW 2mph /  3.2km/h 2mph /  3.2km/h 33% 0.030in /  0.76mm
08:09 44.0 °F /  6.7 °C 17.0 °F /  -8.3 °C 29.3in /  992.1hPa North 7mph /  11.3km/h 7mph /  11.3km/h 33% 0.030in /  0.76mm
08:14 44.0 °F /  6.7 °C 17.0 °F /  -8.3 °C 29.3in /  992.1hPa NNW 1mph /  1.6km/h 2mph /  3.2km/h 33% 0.040in /  1.02mm
08:19 44.0 °F /  6.7 °C 17.0 °F /  -8.3 °C 29.3in /  992.1hPa WSW 3mph /  4.8km/h 4mph /  6.4km/h 33% 0.040in /  1.02mm
08:24 44.0 °F /  6.7 °C 17.0 °F /  -8.3 °C 29.3in /  992.1hPa WNW 2mph /  3.2km/h 4mph /  6.4km/h 33% 0.040in /  1.02mm
08:29 44.0 °F /  6.7 °C 17.0 °F /  -8.3 °C 29.3in /  992.1hPa West 1mph /  1.6km/h 3mph /  4.8km/h 33% 0.040in /  1.02mm
08:34 44.0 °F /  6.7 °C 17.0 °F /  -8.3 °C 29.3in /  992.1hPa NNW 3mph /  4.8km/h 4mph /  6.4km/h 33% 0.030in /  0.76mm
08:39 44.0 °F /  6.7 °C 17.0 °F /  -8.3 °C 29.3in /  992.1hPa NW 1mph /  1.6km/h 4mph /  6.4km/h 33% 0.030in /  0.76mm
08:44 44.0 °F /  6.7 °C 17.0 °F /  -8.3 °C 29.3in /  992.1hPa Calm   1mph /  1.6km/h 33% 0.030in /  0.76mm
08:49 44.0 °F /  6.7 °C 17.0 °F /  -8.3 °C 29.3in /  992.1hPa Calm   1mph /  1.6km/h 33% 0.030in /  0.76mm
08:54 44.0 °F /  6.7 °C 17.0 °F /  -8.3 °C 29.4in /  995.5hPa NE 2mph /  3.2km/h 3mph /  4.8km/h 33% 0.040in /  1.02mm
08:59 44.0 °F /  6.7 °C 17.0 °F /  -8.3 °C 29.4in /  995.5hPa NW 3mph /  4.8km/h 4mph /  6.4km/h 33% 0.050in /  1.27mm
09:04 44.0 °F /  6.7 °C 17.0 °F /  -8.3 °C 29.4in /  995.5hPa WNW 1mph /  1.6km/h 2mph /  3.2km/h 33% 0.050in /  1.27mm
09:09 44.0 °F /  6.7 °C 17.0 °F /  -8.3 °C 29.4in /  995.5hPa Calm   1mph /  1.6km/h 33% 0.050in /  1.27mm
09:14 44.0 °F /  6.7 °C 17.0 °F /  -8.3 °C 29.4in /  995.5hPa WNW 3mph /  4.8km/h 6mph /  9.7km/h 33% 0.060in /  1.52mm
09:19 44.0 °F /  6.7 °C 17.0 °F /  -8.3 °C 29.4in /  995.5hPa Calm   1mph /  1.6km/h 33% 0.050in /  1.27mm
09:24 44.0 °F /  6.7 °C 17.0 °F /  -8.3 °C 29.4in /  995.5hPa NW 2mph /  3.2km/h 6mph /  9.7km/h 33% 0.060in /  1.52mm
09:29 44.0 °F /  6.7 °C 17.0 °F /  -8.3 °C 29.4in /  995.5hPa Calm     33% 0.060in /  1.52mm
09:34 44.0 °F /  6.7 °C 17.0 °F /  -8.3 °C 29.4in /  995.5hPa NNW 1mph /  1.6km/h 2mph /  3.2km/h 33% 0.060in /  1.52mm
09:39 44.0 °F /  6.7 °C 17.0 °F /  -8.3 °C 29.4in /  995.5hPa NNE 2mph /  3.2km/h 3mph /  4.8km/h 33% 0.060in /  1.52mm
09:44 44.0 °F /  6.7 °C 17.0 °F /  -8.3 °C 29.4in /  995.5hPa Calm   3mph /  4.8km/h 33% 0.060in /  1.52mm
09:49 44.0 °F /  6.7 °C 17.0 °F /  -8.3 °C 29.4in /  995.5hPa WNW 2mph /  3.2km/h 4mph /  6.4km/h 33% 0.050in /  1.27mm
09:54 44.0 °F /  6.7 °C 17.0 °F /  -8.3 °C 29.4in /  995.5hPa NW 2mph /  3.2km/h 4mph /  6.4km/h 33% 0.050in /  1.27mm
09:59 44.0 °F /  6.7 °C 17.0 °F /  -8.3 °C 29.4in /  995.5hPa West 1mph /  1.6km/h 2mph /  3.2km/h 33% 0.040in /  1.02mm
10:04 44.0 °F /  6.7 °C 17.0 °F /  -8.3 °C 29.4in /  995.5hPa WNW 3mph /  4.8km/h 5mph /  8km/h 33% 0.030in /  0.76mm
10:09 44.0 °F /  6.7 °C 16.0 °F /  -8.9 °C 29.4in /  995.5hPa NE 2mph /  3.2km/h 4mph /  6.4km/h 33% 0.020in /  0.51mm
10:14 44.0 °F /  6.7 °C 16.0 °F /  -8.9 °C 29.4in /  995.5hPa Calm   4mph /  6.4km/h 33% 0.010in /  0.25mm
10:19 44.0 °F /  6.7 °C 16.0 °F /  -8.9 °C 29.4in /  995.5hPa NW 4mph /  6.4km/h 5mph /  8km/h 33% 0.010in /  0.25mm
10:24 44.0 °F /  6.7 °C 16.0 °F /  -8.9 °C 29.4in /  995.5hPa WNW 2mph /  3.2km/h 5mph /  8km/h 33% 0.010in /  0.25mm
10:29 43.0 °F /  6.1 °C 16.0 °F /  -8.9 °C 29.4in /  995.5hPa WNW 6mph /  9.7km/h 7mph /  11.3km/h 33% 0.000in /  0mm
10:34 43.0 °F /  6.1 °C 16.0 °F /  -8.9 °C 29.4in /  995.5hPa NW 1mph /  1.6km/h 3mph /  4.8km/h 33% 0.000in /  0mm
10:39 43.0 °F /  6.1 °C 16.0 °F /  -8.9 °C 29.4in /  995.5hPa WSW 2mph /  3.2km/h 5mph /  8km/h 33% 0.000in /  0mm
10:44 43.0 °F /  6.1 °C 16.0 °F /  -8.9 °C 29.4in /  995.5hPa Calm   3mph /  4.8km/h 33% 0.000in /  0mm
10:49 43.0 °F /  6.1 °C 16.0 °F /  -8.9 °C 29.4in /  995.5hPa Calm     33% 0.000in /  0mm
10:54 43.0 °F /  6.1 °C 16.0 °F /  -8.9 °C 29.4in /  995.5hPa NW 1mph /  1.6km/h 4mph /  6.4km/h 33% 0.000in /  0mm
10:59 43.0 °F /  6.1 °C 16.0 °F /  -8.9 °C 29.4in /  995.5hPa West 2mph /  3.2km/h 6mph /  9.7km/h 33% 0.000in /  0mm
11:04 44.0 °F /  6.7 °C 16.0 °F /  -8.9 °C 29.4in /  995.5hPa WNW 2mph /  3.2km/h 4mph /  6.4km/h 33% 0.000in /  0mm
11:09 44.0 °F /  6.7 °C 16.0 °F /  -8.9 °C 29.4in /  995.5hPa WNW 9mph /  14.5km/h 9mph /  14.5km/h 33% 0.000in /  0mm
11:14 44.0 °F /  6.7 °C 16.0 °F /  -8.9 °C 29.4in /  995.5hPa NNE 10mph /  16.1km/h 10mph /  16.1km/h 33% 0.000in /  0mm
11:19 44.0 °F /  6.7 °C 17.0 °F /  -8.3 °C 29.4in /  995.5hPa NW 3mph /  4.8km/h 10mph /  16.1km/h 33% 0.000in /  0mm
11:24 44.0 °F /  6.7 °C 17.0 °F /  -8.3 °C 29.4in /  995.5hPa West 1mph /  1.6km/h 3mph /  4.8km/h 33% 0.000in /  0mm
11:29 44.0 °F /  6.7 °C 17.0 °F /  -8.3 °C 29.4in /  995.5hPa WNW 4mph /  6.4km/h 7mph /  11.3km/h 33% 0.000in /  0mm
11:34 44.0 °F /  6.7 °C 17.0 °F /  -8.3 °C 29.5in /  998.9hPa NNW 2mph /  3.2km/h 5mph /  8km/h 34% 0.000in /  0mm
11:39 44.0 °F /  6.7 °C 17.0 °F /  -8.3 °C 29.5in /  998.9hPa NNW 2mph /  3.2km/h 5mph /  8km/h 34% 0.000in /  0mm
11:44 44.0 °F /  6.7 °C 17.0 °F /  -8.3 °C 29.5in /  998.9hPa WNW 1mph /  1.6km/h 4mph /  6.4km/h 34% 0.000in /  0mm
11:49 44.0 °F /  6.7 °C 17.0 °F /  -8.3 °C 29.5in /  998.9hPa NW 1mph /  1.6km/h 6mph /  9.7km/h 34% 0.000in /  0mm
11:54 44.0 °F /  6.7 °C 18.0 °F /  -7.8 °C 29.5in /  998.9hPa NNW 1mph /  1.6km/h 6mph /  9.7km/h 35% 0.000in /  0mm
11:59 44.0 °F /  6.7 °C 18.0 °F /  -7.8 °C 29.5in /  998.9hPa NW 3mph /  4.8km/h 4mph /  6.4km/h 35% 0.000in /  0mm
12:04 44.0 °F /  6.7 °C 18.0 °F /  -7.8 °C 29.5in /  998.9hPa West 4mph /  6.4km/h 9mph /  14.5km/h 36% 0.000in /  0mm
12:09 43.0 °F /  6.1 °C 19.0 °F /  -7.2 °C 29.5in /  998.9hPa NW 5mph /  8km/h 8mph /  12.9km/h 37% 0.000in /  0mm
12:14 43.0 °F /  6.1 °C 19.0 °F /  -7.2 °C 29.5in /  998.9hPa WNW 4mph /  6.4km/h 11mph /  17.7km/h 38% 0.010in /  0.25mm
12:19 43.0 °F /  6.1 °C 19.0 °F /  -7.2 °C 29.5in /  998.9hPa West 2mph /  3.2km/h 6mph /  9.7km/h 38% 0.010in /  0.25mm
12:24 43.0 °F /  6.1 °C 19.0 °F /  -7.2 °C 29.5in /  998.9hPa North 4mph /  6.4km/h 5mph /  8km/h 38% 0.010in /  0.25mm
12:29 43.0 °F /  6.1 °C 19.0 °F /  -7.2 °C 29.5in /  998.9hPa North 4mph /  6.4km/h 6mph /  9.7km/h 38% 0.010in /  0.25mm
12:34 43.0 °F /  6.1 °C 19.0 °F /  -7.2 °C 29.5in /  998.9hPa WNW 6mph /  9.7km/h 10mph /  16.1km/h 38% 0.010in /  0.25mm
12:39 43.0 °F /  6.1 °C 19.0 °F /  -7.2 °C 29.5in /  998.9hPa WNW 1mph /  1.6km/h 3mph /  4.8km/h 38% 0.010in /  0.25mm
12:44 43.0 °F /  6.1 °C 19.0 °F /  -7.2 °C 29.5in /  998.9hPa Calm   2mph /  3.2km/h 38% 0.020in /  0.51mm
12:49 43.0 °F /  6.1 °C 18.0 °F /  -7.8 °C 29.5in /  998.9hPa WNW 2mph /  3.2km/h 5mph /  8km/h 37% 0.020in /  0.51mm
12:54 43.0 °F /  6.1 °C 18.0 °F /  -7.8 °C 29.5in /  998.9hPa WNW 4mph /  6.4km/h 5mph /  8km/h 37% 0.020in /  0.51mm
12:59 43.0 °F /  6.1 °C 18.0 °F /  -7.8 °C 29.5in /  998.9hPa North 7mph /  11.3km/h 10mph /  16.1km/h 37% 0.020in /  0.51mm
13:04 43.0 °F /  6.1 °C 18.0 °F /  -7.8 °C 29.5in /  998.9hPa WNW 1mph /  1.6km/h 4mph /  6.4km/h 36% 0.020in /  0.51mm
13:09 43.0 °F /  6.1 °C 18.0 °F /  -7.8 °C 29.5in /  998.9hPa North 2mph /  3.2km/h 3mph /  4.8km/h 36% 0.020in /  0.51mm
13:14 43.0 °F /  6.1 °C 18.0 °F /  -7.8 °C 29.5in /  998.9hPa WNW 5mph /  8km/h 10mph /  16.1km/h 36% 0.020in /  0.51mm
13:19 43.0 °F /  6.1 °C 18.0 °F /  -7.8 °C 29.5in /  998.9hPa WNW 5mph /  8km/h 8mph /  12.9km/h 36% 0.010in /  0.25mm
13:24 43.0 °F /  6.1 °C 18.0 °F /  -7.8 °C 29.5in /  998.9hPa NNW 6mph /  9.7km/h 7mph /  11.3km/h 37% 0.010in /  0.25mm
13:29 43.0 °F /  6.1 °C 18.0 °F /  -7.8 °C 29.5in /  998.9hPa West 10mph /  16.1km/h 10mph /  16.1km/h 37% 0.010in /  0.25mm
13:34 43.0 °F /  6.1 °C 18.0 °F /  -7.8 °C 29.5in /  998.9hPa NW 2mph /  3.2km/h 5mph /  8km/h 37% 0.010in /  0.25mm
13:39 43.0 °F /  6.1 °C 19.0 °F /  -7.2 °C 29.5in /  998.9hPa NNW 1mph /  1.6km/h 5mph /  8km/h 38% 0.010in /  0.25mm
13:44 43.0 °F /  6.1 °C 19.0 °F /  -7.2 °C 29.5in /  998.9hPa WNW 1mph /  1.6km/h 5mph /  8km/h 37% 0.010in /  0.25mm
13:49 43.0 °F /  6.1 °C 19.0 °F /  -7.2 °C 29.5in /  998.9hPa NNW 3mph /  4.8km/h 7mph /  11.3km/h 38% 0.000in /  0mm
13:54 43.0 °F /  6.1 °C 19.0 °F /  -7.2 °C 29.5in /  998.9hPa NW 1mph /  1.6km/h 4mph /  6.4km/h 38% 0.000in /  0mm
13:59 43.0 °F /  6.1 °C 19.0 °F /  -7.2 °C 29.5in /  998.9hPa NNE 6mph /  9.7km/h 6mph /  9.7km/h 39% 0.000in /  0mm
14:04 42.0 °F /  5.6 °C 19.0 °F /  -7.2 °C 29.5in /  998.9hPa NNW 4mph /  6.4km/h 5mph /  8km/h 39% 0.000in /  0mm
14:09 42.0 °F /  5.6 °C 19.0 °F /  -7.2 °C 29.5in /  998.9hPa Calm     39% 0.000in /  0mm
14:14 42.0 °F /  5.6 °C 19.0 °F /  -7.2 °C 29.5in /  998.9hPa North 2mph /  3.2km/h 2mph /  3.2km/h 38% 0.000in /  0mm
14:19 42.0 °F /  5.6 °C 19.0 °F /  -7.2 °C 29.5in /  998.9hPa NW 3mph /  4.8km/h 4mph /  6.4km/h 38% 0.000in /  0mm
14:24 42.0 °F /  5.6 °C 19.0 °F /  -7.2 °C 29.5in /  998.9hPa WNW 6mph /  9.7km/h 6mph /  9.7km/h 38% 0.010in /  0.25mm
14:29 42.0 °F /  5.6 °C 18.0 °F /  -7.8 °C 29.5in /  998.9hPa West 1mph /  1.6km/h 7mph /  11.3km/h 38% 0.010in /  0.25mm
14:34 42.0 °F /  5.6 °C 18.0 °F /  -7.8 °C 29.5in /  998.9hPa SW 3mph /  4.8km/h 6mph /  9.7km/h 38% 0.010in /  0.25mm
14:39 42.0 °F /  5.6 °C 18.0 °F /  -7.8 °C 29.5in /  998.9hPa NNE 1mph /  1.6km/h 4mph /  6.4km/h 38% 0.010in /  0.25mm
14:44 42.0 °F /  5.6 °C 18.0 °F /  -7.8 °C 29.5in /  998.9hPa NNW 1mph /  1.6km/h 2mph /  3.2km/h 38% 0.010in /  0.25mm
14:49 42.0 °F /  5.6 °C 18.0 °F /  -7.8 °C 29.5in /  998.9hPa WNW 3mph /  4.8km/h 3mph /  4.8km/h 37% 0.010in /  0.25mm
14:54 42.0 °F /  5.6 °C 18.0 °F /  -7.8 °C 29.5in /  998.9hPa Calm   3mph /  4.8km/h 37% 0.010in /  0.25mm
14:59 42.0 °F /  5.6 °C 18.0 °F /  -7.8 °C 29.5in /  998.9hPa WNW 3mph /  4.8km/h 3mph /  4.8km/h 37% 0.010in /  0.25mm
15:04 42.0 °F /  5.6 °C 18.0 °F /  -7.8 °C 29.5in /  998.9hPa NW 1mph /  1.6km/h 3mph /  4.8km/h 38% 0.010in /  0.25mm
15:09 42.0 °F /  5.6 °C 18.0 °F /  -7.8 °C 29.5in /  998.9hPa West 3mph /  4.8km/h 4mph /  6.4km/h 38% 0.010in /  0.25mm
15:14 42.0 °F /  5.6 °C 19.0 °F /  -7.2 °C 29.6in /  1002.3hPa WNW 4mph /  6.4km/h 6mph /  9.7km/h 39% 0.010in /  0.25mm
15:19 42.0 °F /  5.6 °C 19.0 °F /  -7.2 °C 29.6in /  1002.3hPa NNW 3mph /  4.8km/h 6mph /  9.7km/h 39% 0.010in /  0.25mm
15:24 42.0 °F /  5.6 °C 19.0 °F /  -7.2 °C 29.6in /  1002.3hPa WSW 2mph /  3.2km/h 3mph /  4.8km/h 39% 0.010in /  0.25mm
15:29 42.0 °F /  5.6 °C 19.0 °F /  -7.2 °C 29.6in /  1002.3hPa NW 2mph /  3.2km/h 3mph /  4.8km/h 39% 0.000in /  0mm
15:34 42.0 °F /  5.6 °C 19.0 °F /  -7.2 °C 29.6in /  1002.3hPa WNW 6mph /  9.7km/h 7mph /  11.3km/h 39% 0.000in /  0mm
15:39 42.0 °F /  5.6 °C 19.0 °F /  -7.2 °C 29.6in /  1002.3hPa WNW 2mph /  3.2km/h 7mph /  11.3km/h 40% 0.000in /  0mm
15:44 42.0 °F /  5.6 °C 19.0 °F /  -7.2 °C 29.6in /  1002.3hPa NNW 7mph /  11.3km/h 9mph /  14.5km/h 40% 0.000in /  0mm
15:49 42.0 °F /  5.6 °C 20.0 °F /  -6.7 °C 29.6in /  1002.3hPa NW 4mph /  6.4km/h 6mph /  9.7km/h 41% 0.000in /  0mm
15:54 42.0 °F /  5.6 °C 20.0 °F /  -6.7 °C 29.6in /  1002.3hPa NW 2mph /  3.2km/h 5mph /  8km/h 41% 0.000in /  0mm
15:59 42.0 °F /  5.6 °C 20.0 °F /  -6.7 °C 29.6in /  1002.3hPa North 2mph /  3.2km/h 6mph /  9.7km/h 41% 0.000in /  0mm
16:04 42.0 °F /  5.6 °C 20.0 °F /  -6.7 °C 29.6in /  1002.3hPa NW 6mph /  9.7km/h 7mph /  11.3km/h 42% 0.000in /  0mm
16:09 42.0 °F /  5.6 °C 20.0 °F /  -6.7 °C 29.6in /  1002.3hPa NW 3mph /  4.8km/h 7mph /  11.3km/h 42% 0.000in /  0mm
16:14 42.0 °F /  5.6 °C 20.0 °F /  -6.7 °C 29.6in /  1002.3hPa NNW 1mph /  1.6km/h 3mph /  4.8km/h 42% 0.000in /  0mm
16:19 42.0 °F /  5.6 °C 20.0 °F /  -6.7 °C 29.6in /  1002.3hPa WNW 3mph /  4.8km/h 3mph /  4.8km/h 41% 0.000in /  0mm
16:24 42.0 °F /  5.6 °C 20.0 °F /  -6.7 °C 29.6in /  1002.3hPa Calm   2mph /  3.2km/h 41% 0.000in /  0mm
16:29 42.0 °F /  5.6 °C 20.0 °F /  -6.7 °C 29.6in /  1002.3hPa NW 8mph /  12.9km/h 8mph /  12.9km/h 41% 0.000in /  0mm
16:34 41.0 °F /  5 °C 19.0 °F /  -7.2 °C 29.6in /  1002.3hPa West 3mph /  4.8km/h 4mph /  6.4km/h 41% 0.000in /  0mm
16:39 41.0 °F /  5 °C 19.0 °F /  -7.2 °C 29.6in /  1002.3hPa Calm   4mph /  6.4km/h 41% 0.000in /  0mm
16:44 41.0 °F /  5 °C 19.0 °F /  -7.2 °C 29.6in /  1002.3hPa SSE 4mph /  6.4km/h 4mph /  6.4km/h 41% 0.000in /  0mm
16:49 41.0 °F /  5 °C 19.0 °F /  -7.2 °C 29.6in /  1002.3hPa NNW 4mph /  6.4km/h 5mph /  8km/h 41% 0.000in /  0mm
16:54 41.0 °F /  5 °C 19.0 °F /  -7.2 °C 29.6in /  1002.3hPa NW 1mph /  1.6km/h 5mph /  8km/h 41% 0.000in /  0mm
16:59 41.0 °F /  5 °C 19.0 °F /  -7.2 °C 29.6in /  1002.3hPa WNW 3mph /  4.8km/h 4mph /  6.4km/h 41% 0.000in /  0mm
17:04 41.0 °F /  5 °C 18.0 °F /  -7.8 °C 29.6in /  1002.3hPa West 4mph /  6.4km/h 7mph /  11.3km/h 40% 0.000in /  0mm
17:09 41.0 °F /  5 °C 18.0 °F /  -7.8 °C 29.6in /  1002.3hPa Calm   2mph /  3.2km/h 40% 0.000in /  0mm
17:14 41.0 °F /  5 °C 18.0 °F /  -7.8 °C 29.7in /  1005.6hPa WNW 4mph /  6.4km/h 4mph /  6.4km/h 40% 0.010in /  0.25mm
17:19 41.0 °F /  5 °C 17.0 °F /  -8.3 °C 29.7in /  1005.6hPa SSW 4mph /  6.4km/h 4mph /  6.4km/h 39% 0.010in /  0.25mm
17:24 41.0 °F /  5 °C 17.0 °F /  -8.3 °C 29.7in /  1005.6hPa NW 5mph /  8km/h 8mph /  12.9km/h 39% 0.010in /  0.25mm
17:28 41.0 °F /  5 °C 17.0 °F /  -8.3 °C 29.7in /  1005.6hPa North 8mph /  12.9km/h 15mph /  24.1km/h 39% 0.010in /  0.25mm
17:34 40.0 °F /  4.4 °C 17.0 °F /  -8.3 °C 29.7in /  1005.6hPa ESE 2mph /  3.2km/h 15mph /  24.1km/h 39% 0.010in /  0.25mm
17:39 40.0 °F /  4.4 °C 17.0 °F /  -8.3 °C 29.7in /  1005.6hPa WNW 2mph /  3.2km/h 6mph /  9.7km/h 39% 0.010in /  0.25mm
17:44 40.0 °F /  4.4 °C 17.0 °F /  -8.3 °C 29.7in /  1005.6hPa WNW 3mph /  4.8km/h 3mph /  4.8km/h 39% 0.010in /  0.25mm
17:49 40.0 °F /  4.4 °C 17.0 °F /  -8.3 °C 29.7in /  1005.6hPa WNW 3mph /  4.8km/h 8mph /  12.9km/h 39% 0.010in /  0.25mm
17:54 40.0 °F /  4.4 °C 17.0 °F /  -8.3 °C 29.7in /  1005.6hPa WNW 8mph /  12.9km/h 9mph /  14.5km/h 39% 0.010in /  0.25mm
17:59 40.0 °F /  4.4 °C 17.0 °F /  -8.3 °C 29.7in /  1005.6hPa WNW 4mph /  6.4km/h 7mph /  11.3km/h 39% 0.010in /  0.25mm
18:04 40.0 °F /  4.4 °C 17.0 °F /  -8.3 °C 29.7in /  1005.6hPa WSW 3mph /  4.8km/h 4mph /  6.4km/h 39% 0.010in /  0.25mm
18:09 40.0 °F /  4.4 °C 17.0 °F /  -8.3 °C 29.7in /  1005.6hPa NNE 1mph /  1.6km/h 3mph /  4.8km/h 39% 0.010in /  0.25mm
18:14 40.0 °F /  4.4 °C 17.0 °F /  -8.3 °C 29.7in /  1005.6hPa Calm   4mph /  6.4km/h 39% 0.010in /  0.25mm
18:19 40.0 °F /  4.4 °C 17.0 °F /  -8.3 °C 29.7in /  1005.6hPa NW 1mph /  1.6km/h 1mph /  1.6km/h 39% 0.000in /  0mm
18:24 40.0 °F /  4.4 °C 17.0 °F /  -8.3 °C 29.7in /  1005.6hPa WNW 2mph /  3.2km/h 3mph /  4.8km/h 39% 0.000in /  0mm
18:29 40.0 °F /  4.4 °C 17.0 °F /  -8.3 °C 29.7in /  1005.6hPa WNW 7mph /  11.3km/h 10mph /  16.1km/h 39% 0.000in /  0mm
18:34 40.0 °F /  4.4 °C 17.0 °F /  -8.3 °C 29.7in /  1005.6hPa NW 4mph /  6.4km/h 5mph /  8km/h 39% 0.010in /  0.25mm
18:39 40.0 °F /  4.4 °C 17.0 °F /  -8.3 °C 29.7in /  1005.6hPa NW 2mph /  3.2km/h 4mph /  6.4km/h 39% 0.010in /  0.25mm
18:44 40.0 °F /  4.4 °C 17.0 °F /  -8.3 °C 29.7in /  1005.6hPa WNW 2mph /  3.2km/h 4mph /  6.4km/h 39% 0.010in /  0.25mm
18:49 39.0 °F /  3.9 °C 17.0 °F /  -8.3 °C 29.7in /  1005.6hPa NW 2mph /  3.2km/h 3mph /  4.8km/h 39% 0.010in /  0.25mm
18:54 39.0 °F /  3.9 °C 17.0 °F /  -8.3 °C 29.7in /  1005.6hPa WNW 1mph /  1.6km/h 2mph /  3.2km/h 39% 0.010in /  0.25mm
18:59 39.0 °F /  3.9 °C 17.0 °F /  -8.3 °C 29.7in /  1005.6hPa WNW 6mph /  9.7km/h 9mph /  14.5km/h 39% 0.010in /  0.25mm
19:04 39.0 °F /  3.9 °C 16.0 °F /  -8.9 °C 29.7in /  1005.6hPa NW 3mph /  4.8km/h 4mph /  6.4km/h 39% 0.020in /  0.51mm
19:09 39.0 °F /  3.9 °C 16.0 °F /  -8.9 °C 29.7in /  1005.6hPa NW 1mph /  1.6km/h 3mph /  4.8km/h 39% 0.020in /  0.51mm
19:14 39.0 °F /  3.9 °C 16.0 °F /  -8.9 °C 29.7in /  1005.6hPa WNW 4mph /  6.4km/h 5mph /  8km/h 38% 0.020in /  0.51mm
19:19 39.0 °F /  3.9 °C 16.0 °F /  -8.9 °C 29.7in /  1005.6hPa NW 2mph /  3.2km/h 5mph /  8km/h 38% 0.020in /  0.51mm
19:24 39.0 °F /  3.9 °C 16.0 °F /  -8.9 °C 29.7in /  1005.6hPa NNW 1mph /  1.6km/h 4mph /  6.4km/h 38% 0.020in /  0.51mm
19:29 39.0 °F /  3.9 °C 15.0 °F /  -9.4 °C 29.8in /  1009hPa Calm   3mph /  4.8km/h 38% 0.020in /  0.51mm
19:34 39.0 °F /  3.9 °C 15.0 °F /  -9.4 °C 29.8in /  1009hPa North 1mph /  1.6km/h 5mph /  8km/h 38% 0.020in /  0.51mm
19:39 39.0 °F /  3.9 °C 15.0 °F /  -9.4 °C 29.8in /  1009hPa NE 4mph /  6.4km/h 4mph /  6.4km/h 38% 0.010in /  0.25mm
19:44 39.0 °F /  3.9 °C 15.0 °F /  -9.4 °C 29.8in /  1009hPa WNW 1mph /  1.6km/h 3mph /  4.8km/h 38% 0.010in /  0.25mm
19:49 39.0 °F /  3.9 °C 15.0 °F /  -9.4 °C 29.8in /  1009hPa Calm     38% 0.010in /  0.25mm
19:54 39.0 °F /  3.9 °C 15.0 °F /  -9.4 °C 29.8in /  1009hPa Calm     38% 0.010in /  0.25mm
19:59 39.0 °F /  3.9 °C 15.0 °F /  -9.4 °C 29.8in /  1009hPa NNW 1mph /  1.6km/h 2mph /  3.2km/h 38% 0.010in /  0.25mm
20:04 39.0 °F /  3.9 °C 15.0 °F /  -9.4 °C 29.8in /  1009hPa Calm   6mph /  9.7km/h 38% 0.010in /  0.25mm
20:09 39.0 °F /  3.9 °C 15.0 °F /  -9.4 °C 29.8in /  1009hPa NW 4mph /  6.4km/h 6mph /  9.7km/h 38% 0.000in /  0mm
20:14 39.0 °F /  3.9 °C 15.0 °F /  -9.4 °C 29.8in /  1009hPa NNW 2mph /  3.2km/h 7mph /  11.3km/h 38% 0.000in /  0mm
20:19 39.0 °F /  3.9 °C 15.0 °F /  -9.4 °C 29.8in /  1009hPa Calm   4mph /  6.4km/h 38% 0.000in /  0mm
20:24 39.0 °F /  3.9 °C 15.0 °F /  -9.4 °C 29.8in /  1009hPa NNW 2mph /  3.2km/h 2mph /  3.2km/h 38% 0.000in /  0mm
20:29 39.0 °F /  3.9 °C 15.0 °F /  -9.4 °C 29.8in /  1009hPa WNW 3mph /  4.8km/h 6mph /  9.7km/h 38% 0.000in /  0mm
20:34 39.0 °F /  3.9 °C 15.0 °F /  -9.4 °C 29.8in /  1009hPa Calm   2mph /  3.2km/h 38% 0.000in /  0mm
20:39 39.0 °F /  3.9 °C 15.0 °F /  -9.4 °C 29.8in /  1009hPa West 2mph /  3.2km/h 4mph /  6.4km/h 38% 0.000in /  0mm
20:44 39.0 °F /  3.9 °C 15.0 °F /  -9.4 °C 29.8in /  1009hPa SSW 1mph /  1.6km/h 3mph /  4.8km/h 38% 0.000in /  0mm
20:49 39.0 °F /  3.9 °C 15.0 °F /  -9.4 °C 29.8in /  1009hPa Calm   3mph /  4.8km/h 38% 0.000in /  0mm
20:54 39.0 °F /  3.9 °C 15.0 °F /  -9.4 °C 29.8in /  1009hPa NNW 3mph /  4.8km/h 4mph /  6.4km/h 38% 0.000in /  0mm
20:59 39.0 °F /  3.9 °C 15.0 °F /  -9.4 °C 29.8in /  1009hPa NW 3mph /  4.8km/h 6mph /  9.7km/h 38% 0.000in /  0mm
21:04 39.0 °F /  3.9 °C 16.0 °F /  -8.9 °C 29.8in /  1009hPa WNW 1mph /  1.6km/h 6mph /  9.7km/h 39% 0.000in /  0mm
21:09 39.0 °F /  3.9 °C 16.0 °F /  -8.9 °C 29.8in /  1009hPa Calm     39% 0.000in /  0mm
21:14 39.0 °F /  3.9 °C 16.0 °F /  -8.9 °C 29.8in /  1009hPa Calm     39% 0.000in /  0mm
21:19 39.0 °F /  3.9 °C 16.0 °F /  -8.9 °C 29.8in /  1009hPa WNW 1mph /  1.6km/h 1mph /  1.6km/h 39% 0.000in /  0mm
21:24 39.0 °F /  3.9 °C 16.0 °F /  -8.9 °C 29.8in /  1009hPa Calm     39% 0.000in /  0mm
21:29 39.0 °F /  3.9 °C 16.0 °F /  -8.9 °C 29.8in /  1009hPa Calm   2mph /  3.2km/h 39% 0.000in /  0mm
21:34 39.0 °F /  3.9 °C 16.0 °F /  -8.9 °C 29.8in /  1009hPa NW 2mph /  3.2km/h 3mph /  4.8km/h 39% 0.000in /  0mm
21:39 39.0 °F /  3.9 °C 16.0 °F /  -8.9 °C 29.8in /  1009hPa Calm   2mph /  3.2km/h 39% 0.000in /  0mm
21:44 39.0 °F /  3.9 °C 16.0 °F /  -8.9 °C 29.8in /  1009hPa NW 5mph /  8km/h 7mph /  11.3km/h 39% 0.000in /  0mm
21:49 38.0 °F /  3.3 °C 15.0 °F /  -9.4 °C 29.8in /  1009hPa NE 4mph /  6.4km/h 7mph /  11.3km/h 39% 0.000in /  0mm
21:54 38.0 °F /  3.3 °C 16.0 °F /  -8.9 °C 29.8in /  1009hPa Calm   1mph /  1.6km/h 40% 0.000in /  0mm
21:59 38.0 °F /  3.3 °C 16.0 °F /  -8.9 °C 29.8in /  1009hPa Calm   4mph /  6.4km/h 40% 0.000in /  0mm
22:04 38.0 °F /  3.3 °C 16.0 °F /  -8.9 °C 29.8in /  1009hPa Calm     40% 0.000in /  0mm
22:09 38.0 °F /  3.3 °C 16.0 °F /  -8.9 °C 29.8in /  1009hPa NW 2mph /  3.2km/h 3mph /  4.8km/h 40% 0.000in /  0mm
22:14 38.0 °F /  3.3 °C 16.0 °F /  -8.9 °C 29.9in /  1012.4hPa Calm   3mph /  4.8km/h 40% 0.000in /  0mm
22:19 38.0 °F /  3.3 °C 16.0 °F /  -8.9 °C 29.9in /  1012.4hPa North 2mph /  3.2km/h 5mph /  8km/h 40% 0.000in /  0mm
22:24 38.0 °F /  3.3 °C 16.0 °F /  -8.9 °C 29.9in /  1012.4hPa NW 3mph /  4.8km/h 5mph /  8km/h 40% 0.000in /  0mm
22:29 38.0 °F /  3.3 °C 17.0 °F /  -8.3 °C 29.9in /  1012.4hPa NW 1mph /  1.6km/h 3mph /  4.8km/h 41% 0.000in /  0mm
22:34 38.0 °F /  3.3 °C 17.0 °F /  -8.3 °C 29.9in /  1012.4hPa North 2mph /  3.2km/h 4mph /  6.4km/h 41% 0.000in /  0mm
22:39 38.0 °F /  3.3 °C 17.0 °F /  -8.3 °C 29.9in /  1012.4hPa NW 4mph /  6.4km/h 5mph /  8km/h 42% 0.000in /  0mm
22:44 38.0 °F /  3.3 °C 17.0 °F /  -8.3 °C 29.9in /  1012.4hPa NNW 3mph /  4.8km/h 5mph /  8km/h 42% 0.000in /  0mm
22:49 38.0 °F /  3.3 °C 17.0 °F /  -8.3 °C 29.9in /  1012.4hPa WNW 1mph /  1.6km/h 5mph /  8km/h 42% 0.000in /  0mm
22:54 38.0 °F /  3.3 °C 17.0 °F /  -8.3 °C 29.9in /  1012.4hPa NW 8mph /  12.9km/h 8mph /  12.9km/h 42% 0.000in /  0mm
22:59 38.0 °F /  3.3 °C 17.0 °F /  -8.3 °C 29.9in /  1012.4hPa NE 2mph /  3.2km/h 6mph /  9.7km/h 42% 0.000in /  0mm
23:04 38.0 °F /  3.3 °C 17.0 °F /  -8.3 °C 29.9in /  1012.4hPa NNE 3mph /  4.8km/h 4mph /  6.4km/h 42% 0.000in /  0mm
23:09 38.0 °F /  3.3 °C 17.0 °F /  -8.3 °C 29.9in /  1012.4hPa ENE 1mph /  1.6km/h 4mph /  6.4km/h 42% 0.000in /  0mm
23:14 38.0 °F /  3.3 °C 17.0 °F /  -8.3 °C 29.9in /  1012.4hPa WNW 5mph /  8km/h 6mph /  9.7km/h 42% 0.000in /  0mm
23:19 38.0 °F /  3.3 °C 17.0 °F /  -8.3 °C 29.9in /  1012.4hPa NW 3mph /  4.8km/h 6mph /  9.7km/h 42% 0.000in /  0mm
23:24 38.0 °F /  3.3 °C 17.0 °F /  -8.3 °C 29.9in /  1012.4hPa WNW 2mph /  3.2km/h 6mph /  9.7km/h 42% 0.000in /  0mm
23:29 38.0 °F /  3.3 °C 17.0 °F /  -8.3 °C 29.9in /  1012.4hPa North 4mph /  6.4km/h 4mph /  6.4km/h 42% 0.000in /  0mm
23:34 38.0 °F /  3.3 °C 16.0 °F /  -8.9 °C 29.9in /  1012.4hPa Calm     41% 0.000in /  0mm
23:39 38.0 °F /  3.3 °C 16.0 °F /  -8.9 °C 29.9in /  1012.4hPa Calm     41% 0.000in /  0mm
23:44 38.0 °F /  3.3 °C 16.0 °F /  -8.9 °C 29.9in /  1012.4hPa Calm   1mph /  1.6km/h 41% 0.000in /  0mm
23:49 38.0 °F /  3.3 °C 16.0 °F /  -8.9 °C 29.9in /  1012.4hPa Calm     40% 0.000in /  0mm
23:54 38.0 °F /  3.3 °C 16.0 °F /  -8.9 °C 29.9in /  1012.4hPa NE 1mph /  1.6km/h 2mph /  3.2km/h 40% 0.000in /  0mm
23:59 38.0 °F /  3.3 °C 15.0 °F /  -9.4 °C 29.9in /  1012.4hPa NW 2mph /  3.2km/h 3mph /  4.8km/h 40% 0.000in /  0mm
East Ellijay Weather
Compliments of Weather Underground - 2 mb